sensor_id;sensor_type;location;lat;lon;timestamp;P1;durP1;ratioP1;P2;durP2;ratioP2
72951;SDS011;61102;51.956;5.878;2023-03-14T00:02:10;7.90;;;1.30;;
72951;SDS011;61102;51.956;5.878;2023-03-14T00:04:36;7.28;;;1.30;;
72951;SDS011;61102;51.956;5.878;2023-03-14T00:07:02;6.10;;;0.93;;
72951;SDS011;61102;51.956;5.878;2023-03-14T00:09:29;4.95;;;1.15;;
72951;SDS011;61102;51.956;5.878;2023-03-14T00:11:55;5.93;;;1.10;;
72951;SDS011;61102;51.956;5.878;2023-03-14T00:14:22;6.60;;;1.13;;
72951;SDS011;61102;51.956;5.878;2023-03-14T00:16:49;7.07;;;1.20;;
72951;SDS011;61102;51.956;5.878;2023-03-14T00:19:15;4.78;;;0.90;;
72951;SDS011;61102;51.956;5.878;2023-03-14T00:21:41;6.15;;;0.93;;
72951;SDS011;61102;51.956;5.878;2023-03-14T00:24:07;4.32;;;0.82;;
72951;SDS011;61102;51.956;5.878;2023-03-14T00:26:34;5.75;;;1.05;;
72951;SDS011;61102;51.956;5.878;2023-03-14T00:29:00;7.05;;;1.05;;
72951;SDS011;61102;51.956;5.878;2023-03-14T00:31:26;5.25;;;0.95;;
72951;SDS011;61102;51.956;5.878;2023-03-14T00:33:52;5.28;;;0.90;;
72951;SDS011;61102;51.956;5.878;2023-03-14T00:36:20;8.48;;;1.05;;
72951;SDS011;61102;51.956;5.878;2023-03-14T00:38:47;4.97;;;0.70;;
72951;SDS011;61102;51.956;5.878;2023-03-14T00:41:15;3.85;;;0.70;;
72951;SDS011;61102;51.956;5.878;2023-03-14T00:43:43;5.85;;;0.80;;
72951;SDS011;61102;51.956;5.878;2023-03-14T00:46:09;2.90;;;0.52;;
72951;SDS011;61102;51.956;5.878;2023-03-14T00:48:36;6.03;;;0.88;;
72951;SDS011;61102;51.956;5.878;2023-03-14T00:51:03;3.85;;;0.60;;
72951;SDS011;61102;51.956;5.878;2023-03-14T00:55:56;5.28;;;0.70;;
72951;SDS011;61102;51.956;5.878;2023-03-14T00:58:22;3.60;;;0.75;;
72951;SDS011;61102;51.956;5.878;2023-03-14T01:00:49;6.20;;;0.75;;
72951;SDS011;61102;51.956;5.878;2023-03-14T01:03:16;5.07;;;0.60;;
72951;SDS011;61102;51.956;5.878;2023-03-14T01:05:42;4.40;;;0.60;;
72951;SDS011;61102;51.956;5.878;2023-03-14T01:08:08;4.47;;;0.60;;
72951;SDS011;61102;51.956;5.878;2023-03-14T01:10:37;6.38;;;0.90;;
72951;SDS011;61102;51.956;5.878;2023-03-14T01:13:04;4.18;;;0.50;;
72951;SDS011;61102;51.956;5.878;2023-03-14T01:15:31;3.42;;;0.65;;
72951;SDS011;61102;51.956;5.878;2023-03-14T01:18:01;7.05;;;0.95;;
72951;SDS011;61102;51.956;5.878;2023-03-14T01:20:28;5.40;;;0.68;;
72951;SDS011;61102;51.956;5.878;2023-03-14T01:22:54;2.75;;;0.60;;
72951;SDS011;61102;51.956;5.878;2023-03-14T01:25:20;4.97;;;0.90;;
72951;SDS011;61102;51.956;5.878;2023-03-14T01:27:48;6.82;;;1.05;;
72951;SDS011;61102;51.956;5.878;2023-03-14T01:30:14;5.38;;;0.80;;
72951;SDS011;61102;51.956;5.878;2023-03-14T01:32:40;5.65;;;0.88;;
72951;SDS011;61102;51.956;5.878;2023-03-14T01:35:06;7.47;;;0.90;;
72951;SDS011;61102;51.956;5.878;2023-03-14T01:37:34;6.25;;;0.77;;
72951;SDS011;61102;51.956;5.878;2023-03-14T01:40:00;6.63;;;0.90;;
72951;SDS011;61102;51.956;5.878;2023-03-14T01:42:26;7.60;;;1.05;;
72951;SDS011;61102;51.956;5.878;2023-03-14T01:44:54;8.18;;;0.98;;
72951;SDS011;61102;51.956;5.878;2023-03-14T01:47:21;7.70;;;0.90;;
72951;SDS011;61102;51.956;5.878;2023-03-14T01:49:50;4.30;;;0.70;;
72951;SDS011;61102;51.956;5.878;2023-03-14T01:52:21;5.20;;;0.65;;
72951;SDS011;61102;51.956;5.878;2023-03-14T01:54:55;6.88;;;0.70;;
72951;SDS011;61102;51.956;5.878;2023-03-14T01:57:43;4.28;;;0.55;;
72951;SDS011;61102;51.956;5.878;2023-03-14T02:00:13;3.78;;;0.57;;
72951;SDS011;61102;51.956;5.878;2023-03-14T02:02:46;3.22;;;0.40;;
72951;SDS011;61102;51.956;5.878;2023-03-14T02:05:20;4.85;;;0.70;;
72951;SDS011;61102;51.956;5.878;2023-03-14T02:07:56;3.88;;;0.45;;
72951;SDS011;61102;51.956;5.878;2023-03-14T02:10:36;4.57;;;0.50;;
72951;SDS011;61102;51.956;5.878;2023-03-14T02:13:06;4.43;;;0.63;;
72951;SDS011;61102;51.956;5.878;2023-03-14T02:15:56;1.90;;;0.30;;
72951;SDS011;61102;51.956;5.878;2023-03-14T02:18:51;4.70;;;0.50;;
72951;SDS011;61102;51.956;5.878;2023-03-14T02:21:44;5.45;;;0.60;;
72951;SDS011;61102;51.956;5.878;2023-03-14T02:24:25;5.28;;;0.70;;
72951;SDS011;61102;51.956;5.878;2023-03-14T02:27:14;3.53;;;0.52;;
72951;SDS011;61102;51.956;5.878;2023-03-14T02:29:47;5.97;;;0.80;;
72951;SDS011;61102;51.956;5.878;2023-03-14T02:32:17;5.30;;;0.52;;
72951;SDS011;61102;51.956;5.878;2023-03-14T02:34:45;3.08;;;0.55;;
72951;SDS011;61102;51.956;5.878;2023-03-14T02:37:14;4.78;;;0.50;;
72951;SDS011;61102;51.956;5.878;2023-03-14T02:42:10;3.78;;;0.60;;
72951;SDS011;61102;51.956;5.878;2023-03-14T02:47:14;5.25;;;0.60;;
72951;SDS011;61102;51.956;5.878;2023-03-14T02:49:40;2.58;;;0.40;;
72951;SDS011;61102;51.956;5.878;2023-03-14T02:52:07;3.53;;;0.50;;
72951;SDS011;61102;51.956;5.878;2023-03-14T02:54:33;4.72;;;0.43;;
72951;SDS011;61102;51.956;5.878;2023-03-14T02:56:59;3.28;;;0.45;;
72951;SDS011;61102;51.956;5.878;2023-03-14T02:59:25;3.50;;;0.50;;
72951;SDS011;61102;51.956;5.878;2023-03-14T03:01:55;6.22;;;0.80;;
72951;SDS011;61102;51.956;5.878;2023-03-14T03:04:21;5.72;;;0.70;;
72951;SDS011;61102;51.956;5.878;2023-03-14T03:06:47;5.97;;;0.60;;
72951;SDS011;61102;51.956;5.878;2023-03-14T03:11:40;5.05;;;0.50;;
72951;SDS011;61102;51.956;5.878;2023-03-14T03:14:08;8.50;;;1.20;;
72951;SDS011;61102;51.956;5.878;2023-03-14T03:16:34;4.75;;;0.60;;
72951;SDS011;61102;51.956;5.878;2023-03-14T03:19:00;6.53;;;0.60;;
72951;SDS011;61102;51.956;5.878;2023-03-14T03:21:26;5.45;;;0.60;;
72951;SDS011;61102;51.956;5.878;2023-03-14T03:23:52;5.57;;;0.73;;
72951;SDS011;61102;51.956;5.878;2023-03-14T03:26:18;8.40;;;0.82;;
72951;SDS011;61102;51.956;5.878;2023-03-14T03:28:44;7.93;;;0.80;;
72951;SDS011;61102;51.956;5.878;2023-03-14T03:31:12;4.95;;;0.70;;
72951;SDS011;61102;51.956;5.878;2023-03-14T03:33:38;7.28;;;0.70;;
72951;SDS011;61102;51.956;5.878;2023-03-14T03:36:05;5.93;;;0.80;;
72951;SDS011;61102;51.956;5.878;2023-03-14T03:38:35;4.30;;;0.55;;
72951;SDS011;61102;51.956;5.878;2023-03-14T03:41:06;7.28;;;0.90;;
72951;SDS011;61102;51.956;5.878;2023-03-14T03:43:34;6.82;;;1.08;;
72951;SDS011;61102;51.956;5.878;2023-03-14T03:46:03;5.97;;;0.80;;
72951;SDS011;61102;51.956;5.878;2023-03-14T03:48:31;4.43;;;0.77;;
72951;SDS011;61102;51.956;5.878;2023-03-14T03:51:01;10.30;;;1.25;;
72951;SDS011;61102;51.956;5.878;2023-03-14T03:53:27;7.40;;;1.00;;
72951;SDS011;61102;51.956;5.878;2023-03-14T03:55:53;7.32;;;0.82;;
72951;SDS011;61102;51.956;5.878;2023-03-14T03:58:19;7.40;;;1.10;;
72951;SDS011;61102;51.956;5.878;2023-03-14T04:00:46;5.93;;;1.08;;
72951;SDS011;61102;51.956;5.878;2023-03-14T04:03:12;7.95;;;1.00;;
72951;SDS011;61102;51.956;5.878;2023-03-14T04:05:38;10.63;;;1.38;;
72951;SDS011;61102;51.956;5.878;2023-03-14T04:08:08;10.25;;;1.20;;
72951;SDS011;61102;51.956;5.878;2023-03-14T04:10:35;8.57;;;1.25;;
72951;SDS011;61102;51.956;5.878;2023-03-14T04:13:08;6.95;;;0.95;;
72951;SDS011;61102;51.956;5.878;2023-03-14T04:18:08;7.15;;;0.98;;
72951;SDS011;61102;51.956;5.878;2023-03-14T04:20:35;10.50;;;1.15;;
72951;SDS011;61102;51.956;5.878;2023-03-14T04:23:02;11.80;;;1.15;;
72951;SDS011;61102;51.956;5.878;2023-03-14T04:25:28;6.30;;;0.93;;
72951;SDS011;61102;51.956;5.878;2023-03-14T04:27:57;5.40;;;0.70;;
72951;SDS011;61102;51.956;5.878;2023-03-14T04:30:27;7.68;;;0.82;;
72951;SDS011;61102;51.956;5.878;2023-03-14T04:32:57;5.57;;;0.93;;
72951;SDS011;61102;51.956;5.878;2023-03-14T04:35:25;8.15;;;0.93;;
72951;SDS011;61102;51.956;5.878;2023-03-14T04:37:56;6.15;;;0.80;;
72951;SDS011;61102;51.956;5.878;2023-03-14T04:40:23;7.75;;;1.40;;
72951;SDS011;61102;51.956;5.878;2023-03-14T04:42:52;3.78;;;0.60;;
72951;SDS011;61102;51.956;5.878;2023-03-14T04:45:19;7.82;;;0.70;;
72951;SDS011;61102;51.956;5.878;2023-03-14T04:47:46;10.30;;;1.15;;
72951;SDS011;61102;51.956;5.878;2023-03-14T04:50:16;5.20;;;0.90;;
72951;SDS011;61102;51.956;5.878;2023-03-14T04:52:42;4.80;;;0.90;;
72951;SDS011;61102;51.956;5.878;2023-03-14T04:55:09;8.40;;;0.80;;
72951;SDS011;61102;51.956;5.878;2023-03-14T04:57:35;8.45;;;0.80;;
72951;SDS011;61102;51.956;5.878;2023-03-14T05:00:01;8.90;;;0.90;;
72951;SDS011;61102;51.956;5.878;2023-03-14T05:02:50;5.68;;;0.65;;
72951;SDS011;61102;51.956;5.878;2023-03-14T05:05:34;3.70;;;0.68;;
72951;SDS011;61102;51.956;5.878;2023-03-14T05:08:21;6.07;;;0.73;;
72951;SDS011;61102;51.956;5.878;2023-03-14T05:10:58;3.55;;;0.50;;
72951;SDS011;61102;51.956;5.878;2023-03-14T05:13:43;5.55;;;0.75;;
72951;SDS011;61102;51.956;5.878;2023-03-14T05:16:22;5.55;;;0.80;;
72951;SDS011;61102;51.956;5.878;2023-03-14T05:19:11;3.45;;;0.50;;
72951;SDS011;61102;51.956;5.878;2023-03-14T05:21:57;4.47;;;0.50;;
72951;SDS011;61102;51.956;5.878;2023-03-14T05:24:26;5.07;;;0.73;;
72951;SDS011;61102;51.956;5.878;2023-03-14T05:27:02;3.63;;;0.50;;
72951;SDS011;61102;51.956;5.878;2023-03-14T05:30:01;5.00;;;0.52;;
72951;SDS011;61102;51.956;5.878;2023-03-14T05:32:41;3.67;;;0.50;;
72951;SDS011;61102;51.956;5.878;2023-03-14T05:35:07;5.80;;;0.70;;
72951;SDS011;61102;51.956;5.878;2023-03-14T05:38:09;2.97;;;0.40;;
72951;SDS011;61102;51.956;5.878;2023-03-14T05:40:57;4.82;;;0.60;;
72951;SDS011;61102;51.956;5.878;2023-03-14T05:43:46;6.07;;;0.60;;
72951;SDS011;61102;51.956;5.878;2023-03-14T05:46:35;4.28;;;0.50;;
72951;SDS011;61102;51.956;5.878;2023-03-14T05:49:14;6.28;;;0.80;;
72951;SDS011;61102;51.956;5.878;2023-03-14T05:52:03;4.47;;;0.77;;
72951;SDS011;61102;51.956;5.878;2023-03-14T05:55:08;4.85;;;0.63;;
72951;SDS011;61102;51.956;5.878;2023-03-14T05:57:54;4.72;;;0.80;;
72951;SDS011;61102;51.956;5.878;2023-03-14T06:00:39;6.70;;;1.00;;
72951;SDS011;61102;51.956;5.878;2023-03-14T06:03:27;5.95;;;1.05;;
72951;SDS011;61102;51.956;5.878;2023-03-14T06:05:53;6.50;;;0.65;;
72951;SDS011;61102;51.956;5.878;2023-03-14T06:08:22;4.43;;;0.68;;
72951;SDS011;61102;51.956;5.878;2023-03-14T06:10:48;4.10;;;0.70;;
72951;SDS011;61102;51.956;5.878;2023-03-14T06:13:14;4.13;;;0.52;;
72951;SDS011;61102;51.956;5.878;2023-03-14T06:15:42;3.20;;;0.60;;
72951;SDS011;61102;51.956;5.878;2023-03-14T06:18:08;5.15;;;0.60;;
72951;SDS011;61102;51.956;5.878;2023-03-14T06:20:36;2.60;;;0.52;;
72951;SDS011;61102;51.956;5.878;2023-03-14T06:23:05;4.43;;;0.90;;
72951;SDS011;61102;51.956;5.878;2023-03-14T06:25:32;4.28;;;0.70;;
72951;SDS011;61102;51.956;5.878;2023-03-14T06:28:00;2.20;;;0.45;;
72951;SDS011;61102;51.956;5.878;2023-03-14T06:30:26;3.83;;;0.60;;
72951;SDS011;61102;51.956;5.878;2023-03-14T06:32:53;4.32;;;0.70;;
72951;SDS011;61102;51.956;5.878;2023-03-14T06:35:21;4.97;;;0.82;;
72951;SDS011;61102;51.956;5.878;2023-03-14T06:37:48;5.38;;;0.80;;
72951;SDS011;61102;51.956;5.878;2023-03-14T06:40:14;4.63;;;0.90;;
72951;SDS011;61102;51.956;5.878;2023-03-14T06:42:59;3.58;;;0.70;;
72951;SDS011;61102;51.956;5.878;2023-03-14T06:45:28;5.40;;;0.85;;
72951;SDS011;61102;51.956;5.878;2023-03-14T06:50:26;2.95;;;0.90;;
72951;SDS011;61102;51.956;5.878;2023-03-14T06:52:52;4.43;;;0.90;;
72951;SDS011;61102;51.956;5.878;2023-03-14T06:55:22;7.43;;;1.15;;
72951;SDS011;61102;51.956;5.878;2023-03-14T06:57:50;4.00;;;0.80;;
72951;SDS011;61102;51.956;5.878;2023-03-14T07:00:17;3.75;;;0.85;;
72951;SDS011;61102;51.956;5.878;2023-03-14T07:02:43;5.90;;;1.10;;
72951;SDS011;61102;51.956;5.878;2023-03-14T07:05:23;4.50;;;1.00;;
72951;SDS011;61102;51.956;5.878;2023-03-14T07:07:50;4.72;;;0.98;;
72951;SDS011;61102;51.956;5.878;2023-03-14T07:10:17;5.13;;;1.10;;
72951;SDS011;61102;51.956;5.878;2023-03-14T07:12:43;4.93;;;1.00;;
72951;SDS011;61102;51.956;5.878;2023-03-14T07:15:10;3.70;;;1.15;;
72951;SDS011;61102;51.956;5.878;2023-03-14T07:17:36;4.97;;;1.30;;
72951;SDS011;61102;51.956;5.878;2023-03-14T07:20:04;6.43;;;1.40;;
72951;SDS011;61102;51.956;5.878;2023-03-14T07:22:30;4.38;;;1.08;;
72951;SDS011;61102;51.956;5.878;2023-03-14T07:24:56;4.30;;;1.17;;
72951;SDS011;61102;51.956;5.878;2023-03-14T07:27:24;4.78;;;1.20;;
72951;SDS011;61102;51.956;5.878;2023-03-14T07:29:50;3.97;;;1.10;;
72951;SDS011;61102;51.956;5.878;2023-03-14T07:32:17;4.13;;;0.90;;
72951;SDS011;61102;51.956;5.878;2023-03-14T07:34:44;3.38;;;0.80;;
72951;SDS011;61102;51.956;5.878;2023-03-14T07:37:10;4.53;;;0.98;;
72951;SDS011;61102;51.956;5.878;2023-03-14T07:39:36;2.90;;;0.70;;
72951;SDS011;61102;51.956;5.878;2023-03-14T07:42:17;2.40;;;0.68;;
72951;SDS011;61102;51.956;5.878;2023-03-14T07:45:02;2.47;;;0.63;;
72951;SDS011;61102;51.956;5.878;2023-03-14T07:47:28;2.47;;;0.57;;
72951;SDS011;61102;51.956;5.878;2023-03-14T07:49:54;3.70;;;0.70;;
72951;SDS011;61102;51.956;5.878;2023-03-14T07:52:20;2.60;;;0.47;;
72951;SDS011;61102;51.956;5.878;2023-03-14T07:54:46;3.17;;;0.65;;
72951;SDS011;61102;51.956;5.878;2023-03-14T07:57:12;3.00;;;0.40;;
72951;SDS011;61102;51.956;5.878;2023-03-14T07:59:38;2.30;;;0.50;;
72951;SDS011;61102;51.956;5.878;2023-03-14T08:02:04;4.18;;;0.50;;
72951;SDS011;61102;51.956;5.878;2023-03-14T08:04:50;1.23;;;0.20;;
72951;SDS011;61102;51.956;5.878;2023-03-14T08:07:16;1.65;;;0.20;;
72951;SDS011;61102;51.956;5.878;2023-03-14T08:09:42;1.85;;;0.30;;
72951;SDS011;61102;51.956;5.878;2023-03-14T08:12:09;1.90;;;0.40;;
72951;SDS011;61102;51.956;5.878;2023-03-14T08:14:35;1.33;;;0.20;;
72951;SDS011;61102;51.956;5.878;2023-03-14T08:17:01;1.98;;;0.40;;
72951;SDS011;61102;51.956;5.878;2023-03-14T08:19:27;2.55;;;0.50;;
72951;SDS011;61102;51.956;5.878;2023-03-14T08:21:53;2.83;;;0.32;;
72951;SDS011;61102;51.956;5.878;2023-03-14T08:24:19;1.52;;;0.30;;
72951;SDS011;61102;51.956;5.878;2023-03-14T08:26:45;0.65;;;0.35;;
72951;SDS011;61102;51.956;5.878;2023-03-14T08:29:11;1.38;;;0.30;;
72951;SDS011;61102;51.956;5.878;2023-03-14T08:31:38;1.60;;;0.40;;
72951;SDS011;61102;51.956;5.878;2023-03-14T08:34:04;1.80;;;0.30;;
72951;SDS011;61102;51.956;5.878;2023-03-14T08:36:32;2.72;;;0.40;;
72951;SDS011;61102;51.956;5.878;2023-03-14T08:38:58;1.65;;;0.35;;
72951;SDS011;61102;51.956;5.878;2023-03-14T08:41:25;1.42;;;0.35;;
72951;SDS011;61102;51.956;5.878;2023-03-14T08:43:51;5.63;;;0.50;;
72951;SDS011;61102;51.956;5.878;2023-03-14T08:46:17;2.33;;;0.40;;
72951;SDS011;61102;51.956;5.878;2023-03-14T08:48:43;4.18;;;0.60;;
72951;SDS011;61102;51.956;5.878;2023-03-14T08:51:09;2.38;;;0.40;;
72951;SDS011;61102;51.956;5.878;2023-03-14T08:53:38;3.92;;;0.40;;
72951;SDS011;61102;51.956;5.878;2023-03-14T08:56:05;3.47;;;0.40;;
72951;SDS011;61102;51.956;5.878;2023-03-14T08:58:32;4.47;;;0.50;;
72951;SDS011;61102;51.956;5.878;2023-03-14T09:00:58;4.18;;;0.40;;
72951;SDS011;61102;51.956;5.878;2023-03-14T09:03:25;4.05;;;0.40;;
72951;SDS011;61102;51.956;5.878;2023-03-14T09:05:51;4.78;;;0.70;;
72951;SDS011;61102;51.956;5.878;2023-03-14T09:08:17;4.45;;;0.50;;
72951;SDS011;61102;51.956;5.878;2023-03-14T09:10:43;6.22;;;0.55;;
72951;SDS011;61102;51.956;5.878;2023-03-14T09:13:10;4.78;;;0.40;;
72951;SDS011;61102;51.956;5.878;2023-03-14T09:15:36;4.70;;;0.40;;
72951;SDS011;61102;51.956;5.878;2023-03-14T09:18:02;7.00;;;0.70;;
72951;SDS011;61102;51.956;5.878;2023-03-14T09:20:28;2.15;;;0.22;;
72951;SDS011;61102;51.956;5.878;2023-03-14T09:22:54;3.50;;;0.57;;
72951;SDS011;61102;51.956;5.878;2023-03-14T09:25:20;5.22;;;0.63;;
72951;SDS011;61102;51.956;5.878;2023-03-14T09:27:46;2.42;;;0.40;;
72951;SDS011;61102;51.956;5.878;2023-03-14T09:30:12;3.97;;;0.40;;
72951;SDS011;61102;51.956;5.878;2023-03-14T09:32:38;3.08;;;0.30;;
72951;SDS011;61102;51.956;5.878;2023-03-14T09:35:04;0.55;;;0.10;;
72951;SDS011;61102;51.956;5.878;2023-03-14T09:37:30;3.15;;;0.30;;
72951;SDS011;61102;51.956;5.878;2023-03-14T09:39:56;5.07;;;0.85;;
72951;SDS011;61102;51.956;5.878;2023-03-14T09:42:23;4.97;;;0.22;;
72951;SDS011;61102;51.956;5.878;2023-03-14T09:47:29;1.70;;;0.20;;
72951;SDS011;61102;51.956;5.878;2023-03-14T09:49:56;3.22;;;0.40;;
72951;SDS011;61102;51.956;5.878;2023-03-14T09:52:24;1.80;;;0.20;;
72951;SDS011;61102;51.956;5.878;2023-03-14T09:54:59;2.88;;;0.30;;
72951;SDS011;61102;51.956;5.878;2023-03-14T09:57:28;2.15;;;0.47;;
72951;SDS011;61102;51.956;5.878;2023-03-14T09:59:56;4.40;;;0.47;;
72951;SDS011;61102;51.956;5.878;2023-03-14T10:02:34;6.05;;;0.63;;
72951;SDS011;61102;51.956;5.878;2023-03-14T10:05:01;4.75;;;0.70;;
72951;SDS011;61102;51.956;5.878;2023-03-14T10:07:28;2.42;;;0.32;;
72951;SDS011;61102;51.956;5.878;2023-03-14T10:09:56;4.60;;;0.70;;
72951;SDS011;61102;51.956;5.878;2023-03-14T10:12:33;3.30;;;0.50;;
72951;SDS011;61102;51.956;5.878;2023-03-14T10:15:11;2.78;;;0.30;;
72951;SDS011;61102;51.956;5.878;2023-03-14T10:17:44;5.95;;;0.40;;
72951;SDS011;61102;51.956;5.878;2023-03-14T10:23:04;4.88;;;0.60;;
72951;SDS011;61102;51.956;5.878;2023-03-14T10:25:33;10.20;;;1.38;;
72951;SDS011;61102;51.956;5.878;2023-03-14T10:28:01;10.10;;;0.88;;
72951;SDS011;61102;51.956;5.878;2023-03-14T10:30:30;11.60;;;1.00;;
72951;SDS011;61102;51.956;5.878;2023-03-14T10:33:08;7.63;;;0.98;;
72951;SDS011;61102;51.956;5.878;2023-03-14T10:38:42;11.65;;;1.58;;
72951;SDS011;61102;51.956;5.878;2023-03-14T10:41:43;9.25;;;1.00;;
72951;SDS011;61102;51.956;5.878;2023-03-14T10:44:01;10.15;;;1.23;;
72951;SDS011;61102;51.956;5.878;2023-03-14T10:46:30;14.30;;;1.33;;
72951;SDS011;61102;51.956;5.878;2023-03-14T10:54:54;9.82;;;1.25;;
72951;SDS011;61102;51.956;5.878;2023-03-14T10:57:20;9.13;;;1.13;;
72951;SDS011;61102;51.956;5.878;2023-03-14T10:59:46;10.70;;;1.38;;
72951;SDS011;61102;51.956;5.878;2023-03-14T11:07:46;14.05;;;1.75;;
72951;SDS011;61102;51.956;5.878;2023-03-14T11:10:19;11.88;;;1.20;;
72951;SDS011;61102;51.956;5.878;2023-03-14T11:16:05;14.48;;;1.70;;
72951;SDS011;61102;51.956;5.878;2023-03-14T11:18:56;10.10;;;0.90;;
72951;SDS011;61102;51.956;5.878;2023-03-14T11:29:48;14.50;;;1.98;;
72951;SDS011;61102;51.956;5.878;2023-03-14T11:32:38;12.70;;;1.55;;
72951;SDS011;61102;51.956;5.878;2023-03-14T11:40:54;11.98;;;1.33;;
72951;SDS011;61102;51.956;5.878;2023-03-14T11:46:01;15.07;;;1.70;;
72951;SDS011;61102;51.956;5.878;2023-03-14T11:51:36;12.00;;;1.63;;
72951;SDS011;61102;51.956;5.878;2023-03-14T11:54:12;12.77;;;1.60;;
72951;SDS011;61102;51.956;5.878;2023-03-14T11:56:59;12.73;;;1.65;;
72951;SDS011;61102;51.956;5.878;2023-03-14T12:05:12;9.93;;;1.65;;
72951;SDS011;61102;51.956;5.878;2023-03-14T12:13:29;10.30;;;1.05;;
72951;SDS011;61102;51.956;5.878;2023-03-14T12:16:06;11.57;;;1.25;;
72951;SDS011;61102;51.956;5.878;2023-03-14T12:18:45;8.20;;;1.20;;
72951;SDS011;61102;51.956;5.878;2023-03-14T12:21:11;10.48;;;1.35;;
72951;SDS011;61102;51.956;5.878;2023-03-14T12:26:20;8.18;;;1.10;;
72951;SDS011;61102;51.956;5.878;2023-03-14T12:44:38;5.75;;;0.82;;
72951;SDS011;61102;51.956;5.878;2023-03-14T12:49:45;5.72;;;0.80;;
72951;SDS011;61102;51.956;5.878;2023-03-14T12:52:13;9.27;;;0.82;;
72951;SDS011;61102;51.956;5.878;2023-03-14T13:00:01;10.82;;;1.05;;
72951;SDS011;61102;51.956;5.878;2023-03-14T13:02:42;13.05;;;1.42;;
72951;SDS011;61102;51.956;5.878;2023-03-14T13:05:11;7.10;;;0.73;;
72951;SDS011;61102;51.956;5.878;2023-03-14T13:18:13;10.45;;;1.00;;
72951;SDS011;61102;51.956;5.878;2023-03-14T13:23:19;7.00;;;1.10;;
72951;SDS011;61102;51.956;5.878;2023-03-14T13:25:47;6.57;;;0.85;;
72951;SDS011;61102;51.956;5.878;2023-03-14T13:28:13;12.25;;;1.40;;
72951;SDS011;61102;51.956;5.878;2023-03-14T13:30:41;7.47;;;1.00;;
72951;SDS011;61102;51.956;5.878;2023-03-14T13:33:15;9.98;;;0.85;;
72951;SDS011;61102;51.956;5.878;2023-03-14T13:35:45;7.15;;;0.82;;
72951;SDS011;61102;51.956;5.878;2023-03-14T13:38:15;7.03;;;0.70;;
72951;SDS011;61102;51.956;5.878;2023-03-14T13:40:49;5.35;;;0.82;;
72951;SDS011;61102;51.956;5.878;2023-03-14T13:43:21;4.82;;;1.00;;
72951;SDS011;61102;51.956;5.878;2023-03-14T13:45:53;4.95;;;0.68;;
72951;SDS011;61102;51.956;5.878;2023-03-14T13:48:22;7.70;;;0.90;;
72951;SDS011;61102;51.956;5.878;2023-03-14T13:53:24;6.78;;;0.63;;
72951;SDS011;61102;51.956;5.878;2023-03-14T13:55:51;4.97;;;0.90;;
72951;SDS011;61102;51.956;5.878;2023-03-14T13:58:25;5.13;;;0.55;;
72951;SDS011;61102;51.956;5.878;2023-03-14T14:01:01;5.20;;;0.70;;
72951;SDS011;61102;51.956;5.878;2023-03-14T14:03:34;5.20;;;0.50;;
72951;SDS011;61102;51.956;5.878;2023-03-14T14:06:03;6.15;;;0.65;;
72951;SDS011;61102;51.956;5.878;2023-03-14T14:08:34;4.22;;;0.45;;
72951;SDS011;61102;51.956;5.878;2023-03-14T14:11:01;8.38;;;0.82;;
72951;SDS011;61102;51.956;5.878;2023-03-14T14:13:30;7.53;;;0.70;;
72951;SDS011;61102;51.956;5.878;2023-03-14T14:16:00;3.97;;;0.73;;
72951;SDS011;61102;51.956;5.878;2023-03-14T14:18:29;6.93;;;0.80;;
72951;SDS011;61102;51.956;5.878;2023-03-14T14:20:57;5.78;;;0.63;;
72951;SDS011;61102;51.956;5.878;2023-03-14T14:23:26;6.22;;;0.73;;
72951;SDS011;61102;51.956;5.878;2023-03-14T14:25:55;4.00;;;0.40;;
72951;SDS011;61102;51.956;5.878;2023-03-14T14:28:24;7.45;;;0.80;;
72951;SDS011;61102;51.956;5.878;2023-03-14T14:31:01;7.00;;;0.73;;
72951;SDS011;61102;51.956;5.878;2023-03-14T14:33:53;6.20;;;0.60;;
72951;SDS011;61102;51.956;5.878;2023-03-14T14:36:28;6.82;;;0.93;;
72951;SDS011;61102;51.956;5.878;2023-03-14T14:39:03;6.05;;;0.47;;
72951;SDS011;61102;51.956;5.878;2023-03-14T14:41:50;3.40;;;0.55;;
72951;SDS011;61102;51.956;5.878;2023-03-14T14:44:18;9.27;;;0.90;;
72951;SDS011;61102;51.956;5.878;2023-03-14T14:46:54;5.85;;;0.70;;
72951;SDS011;61102;51.956;5.878;2023-03-14T14:49:22;5.68;;;0.60;;
72951;SDS011;61102;51.956;5.878;2023-03-14T14:52:00;6.18;;;0.70;;
72951;SDS011;61102;51.956;5.878;2023-03-14T14:54:33;7.47;;;0.80;;
72951;SDS011;61102;51.956;5.878;2023-03-14T14:57:05;7.72;;;0.70;;
72951;SDS011;61102;51.956;5.878;2023-03-14T14:59:42;4.32;;;0.68;;
72951;SDS011;61102;51.956;5.878;2023-03-14T15:02:17;5.40;;;0.60;;
72951;SDS011;61102;51.956;5.878;2023-03-14T15:04:54;6.68;;;0.50;;
72951;SDS011;61102;51.956;5.878;2023-03-14T15:07:20;8.27;;;0.75;;
72951;SDS011;61102;51.956;5.878;2023-03-14T15:09:46;6.53;;;0.80;;
72951;SDS011;61102;51.956;5.878;2023-03-14T15:12:12;5.15;;;0.60;;
72951;SDS011;61102;51.956;5.878;2023-03-14T15:14:38;4.85;;;0.55;;
72951;SDS011;61102;51.956;5.878;2023-03-14T15:17:05;4.03;;;0.55;;
72951;SDS011;61102;51.956;5.878;2023-03-14T15:19:35;6.32;;;0.82;;
72951;SDS011;61102;51.956;5.878;2023-03-14T15:22:01;7.03;;;0.65;;
72951;SDS011;61102;51.956;5.878;2023-03-14T15:24:27;6.28;;;0.82;;
72951;SDS011;61102;51.956;5.878;2023-03-14T15:26:53;7.20;;;0.82;;
72951;SDS011;61102;51.956;5.878;2023-03-14T15:29:19;5.85;;;0.63;;
72951;SDS011;61102;51.956;5.878;2023-03-14T15:31:45;6.10;;;0.60;;
72951;SDS011;61102;51.956;5.878;2023-03-14T15:34:11;3.67;;;0.50;;
72951;SDS011;61102;51.956;5.878;2023-03-14T15:36:37;6.93;;;0.80;;
72951;SDS011;61102;51.956;5.878;2023-03-14T15:39:04;6.00;;;0.70;;
72951;SDS011;61102;51.956;5.878;2023-03-14T15:41:32;5.28;;;0.60;;
72951;SDS011;61102;51.956;5.878;2023-03-14T15:43:58;4.75;;;0.60;;
72951;SDS011;61102;51.956;5.878;2023-03-14T15:46:24;7.03;;;0.90;;
72951;SDS011;61102;51.956;5.878;2023-03-14T15:48:50;4.70;;;0.77;;
72951;SDS011;61102;51.956;5.878;2023-03-14T15:51:17;10.13;;;0.85;;
72951;SDS011;61102;51.956;5.878;2023-03-14T15:53:44;4.50;;;0.68;;
72951;SDS011;61102;51.956;5.878;2023-03-14T15:56:16;4.68;;;0.70;;
72951;SDS011;61102;51.956;5.878;2023-03-14T15:58:43;6.35;;;0.60;;
72951;SDS011;61102;51.956;5.878;2023-03-14T16:01:12;7.05;;;0.90;;
72951;SDS011;61102;51.956;5.878;2023-03-14T16:03:41;4.78;;;0.70;;
72951;SDS011;61102;51.956;5.878;2023-03-14T16:06:10;6.20;;;0.75;;
72951;SDS011;61102;51.956;5.878;2023-03-14T16:08:37;6.47;;;0.90;;
72951;SDS011;61102;51.956;5.878;2023-03-14T16:11:03;4.50;;;0.60;;
72951;SDS011;61102;51.956;5.878;2023-03-14T16:13:30;2.58;;;0.40;;
72951;SDS011;61102;51.956;5.878;2023-03-14T16:15:57;4.90;;;0.60;;
72951;SDS011;61102;51.956;5.878;2023-03-14T16:18:26;6.40;;;0.68;;
72951;SDS011;61102;51.956;5.878;2023-03-14T16:20:55;5.68;;;0.63;;
72951;SDS011;61102;51.956;5.878;2023-03-14T16:23:26;4.50;;;0.60;;
72951;SDS011;61102;51.956;5.878;2023-03-14T16:25:53;4.25;;;0.70;;
72951;SDS011;61102;51.956;5.878;2023-03-14T16:28:20;3.92;;;0.50;;
72951;SDS011;61102;51.956;5.878;2023-03-14T16:30:47;3.60;;;0.35;;
72951;SDS011;61102;51.956;5.878;2023-03-14T16:33:13;2.53;;;0.30;;
72951;SDS011;61102;51.956;5.878;2023-03-14T16:35:40;3.72;;;0.60;;
72951;SDS011;61102;51.956;5.878;2023-03-14T16:38:07;4.10;;;0.88;;
72951;SDS011;61102;51.956;5.878;2023-03-14T16:40:33;2.33;;;0.40;;
72951;SDS011;61102;51.956;5.878;2023-03-14T16:42:59;2.40;;;0.30;;
72951;SDS011;61102;51.956;5.878;2023-03-14T16:45:28;4.70;;;0.57;;
72951;SDS011;61102;51.956;5.878;2023-03-14T16:47:55;6.72;;;0.93;;
72951;SDS011;61102;51.956;5.878;2023-03-14T16:50:21;3.80;;;0.50;;
72951;SDS011;61102;51.956;5.878;2023-03-14T16:52:47;6.20;;;0.52;;
72951;SDS011;61102;51.956;5.878;2023-03-14T16:55:14;3.42;;;0.50;;